createdAt,value
2023-04-15T00:02:23.336Z,1.17
2023-04-15T00:04:51.405Z,1.13
2023-04-15T00:07:19.371Z,1.10
2023-04-15T00:09:48.610Z,1.23
2023-04-15T00:12:16.475Z,1.50
2023-04-15T00:14:44.986Z,1.33
2023-04-15T00:17:13.211Z,1.20
2023-04-15T00:19:41.729Z,1.20
2023-04-15T00:22:09.584Z,1.70
2023-04-15T00:24:37.496Z,1.37
2023-04-15T00:27:06.839Z,1.63
2023-04-15T00:29:34.869Z,1.40
2023-04-15T00:32:02.746Z,1.47
2023-04-15T00:34:30.619Z,1.53
2023-04-15T00:36:58.498Z,1.40
2023-04-15T00:39:26.388Z,1.47
2023-04-15T00:41:54.304Z,1.40
2023-04-15T00:44:23.923Z,1.40
2023-04-15T00:46:52.952Z,1.60
2023-04-15T00:49:20.865Z,1.27
2023-04-15T00:51:49.075Z,1.50
2023-04-15T00:54:17.235Z,1.40
2023-04-15T00:56:45.163Z,1.50
2023-04-15T00:59:13.053Z,1.50
2023-04-15T01:01:42.921Z,1.40
2023-04-15T01:04:12.275Z,1.50
2023-04-15T01:06:40.274Z,1.60
2023-04-15T01:09:08.215Z,1.60
2023-04-15T01:11:36.148Z,1.40
2023-04-15T01:14:04.113Z,1.40
2023-04-15T01:16:32.326Z,1.37
2023-04-15T01:19:02.062Z,1.30
2023-04-15T01:21:30.266Z,1.87
2023-04-15T01:23:58.400Z,1.30
2023-04-15T01:26:28.167Z,1.67
2023-04-15T01:28:56.320Z,1.30
2023-04-15T01:31:25.273Z,1.63
2023-04-15T01:33:53.172Z,1.30
2023-04-15T01:36:21.236Z,1.50
2023-04-15T01:38:49.150Z,1.53
2023-04-15T01:41:17.254Z,1.60
2023-04-15T01:43:47.203Z,1.40
2023-04-15T01:46:15.127Z,1.53
2023-04-15T01:48:43.131Z,1.53
2023-04-15T01:51:11.399Z,1.80
2023-04-15T01:53:39.316Z,1.27
2023-04-15T01:56:08.205Z,1.43
2023-04-15T01:58:36.544Z,1.30
2023-04-15T02:01:06.012Z,1.30
2023-04-15T02:03:37.300Z,1.50
2023-04-15T02:06:06.106Z,1.50
2023-04-15T02:08:34.132Z,1.50
2023-04-15T02:11:02.198Z,1.40
2023-04-15T02:13:30.159Z,1.43
2023-04-15T02:15:59.280Z,1.40
2023-04-15T02:18:28.491Z,1.37
2023-04-15T02:20:57.204Z,1.50
2023-04-15T02:23:25.430Z,1.33
2023-04-15T02:25:54.442Z,1.50
2023-04-15T02:28:22.487Z,1.27
2023-04-15T02:30:52.678Z,1.40
2023-04-15T02:33:20.900Z,1.50
2023-04-15T02:35:50.171Z,1.63
2023-04-15T02:38:18.091Z,1.50
2023-04-15T02:40:46.195Z,1.53
2023-04-15T02:43:14.319Z,1.47
2023-04-15T02:45:43.517Z,1.40
2023-04-15T02:48:11.555Z,1.30
2023-04-15T02:50:40.702Z,1.30
2023-04-15T02:53:11.700Z,1.40
2023-04-15T02:55:40.014Z,1.47
2023-04-15T02:58:08.030Z,1.40
2023-04-15T03:00:36.218Z,1.43
2023-04-15T03:03:05.310Z,1.67
2023-04-15T03:05:33.520Z,1.50
2023-04-15T03:08:04.006Z,1.60
2023-04-15T03:10:33.560Z,1.70
2023-04-15T03:13:03.032Z,1.50
2023-04-15T03:15:31.025Z,1.70
2023-04-15T03:17:59.055Z,1.87
2023-04-15T03:20:27.499Z,1.90
2023-04-15T03:22:55.456Z,2.53
2023-04-15T03:25:25.045Z,2.33
2023-04-15T03:27:54.307Z,2.00
2023-04-15T03:30:22.438Z,2.10
2023-04-15T03:32:50.627Z,2.70
2023-04-15T03:35:18.784Z,3.30
2023-04-15T03:37:46.900Z,2.93
2023-04-15T03:40:14.891Z,3.23
2023-04-15T03:42:42.808Z,2.97
2023-04-15T03:45:12.864Z,3.20
2023-04-15T03:47:40.940Z,4.67
2023-04-15T03:50:09.422Z,4.10
2023-04-15T03:52:37.387Z,4.77
2023-04-15T03:55:05.768Z,3.70
2023-04-15T03:57:37.978Z,4.37
2023-04-15T04:00:07.228Z,5.23
2023-04-15T04:02:41.311Z,5.47
2023-04-15T04:05:10.881Z,5.60
2023-04-15T04:07:38.801Z,5.60
2023-04-15T04:10:07.860Z,5.47
2023-04-15T04:12:35.928Z,5.47
2023-04-15T04:15:03.883Z,4.63
2023-04-15T04:17:31.805Z,5.57
2023-04-15T04:20:01.181Z,6.07
2023-04-15T04:22:29.068Z,6.20
2023-04-15T04:24:57.073Z,5.50
2023-04-15T04:27:25.013Z,5.27
2023-04-15T04:29:52.922Z,5.17
2023-04-15T04:32:20.925Z,5.73
2023-04-15T04:34:49.066Z,5.60
2023-04-15T04:37:18.391Z,5.77
2023-04-15T04:39:46.281Z,5.53
2023-04-15T04:42:14.157Z,5.47
2023-04-15T04:44:42.055Z,6.03
2023-04-15T04:47:09.932Z,5.80
2023-04-15T04:49:37.848Z,6.17
2023-04-15T04:52:05.760Z,5.77
2023-04-15T04:54:34.989Z,5.57
2023-04-15T04:57:02.992Z,6.30
2023-04-15T04:59:30.878Z,5.80
2023-04-15T05:01:58.825Z,5.93
2023-04-15T05:04:27.144Z,5.87
2023-04-15T05:06:55.106Z,5.17
2023-04-15T05:09:23.020Z,5.53
2023-04-15T05:11:52.268Z,5.47
2023-04-15T05:14:21.711Z,5.33
2023-04-15T05:16:50.821Z,6.20
2023-04-15T05:19:18.727Z,5.43
2023-04-15T05:21:46.632Z,4.90
2023-04-15T05:24:14.564Z,5.07
2023-04-15T05:26:42.940Z,5.43
2023-04-15T05:29:12.314Z,6.03
2023-04-15T05:31:40.438Z,6.10
2023-04-15T05:34:08.490Z,5.67
2023-04-15T05:36:36.564Z,5.80
2023-04-15T05:39:04.911Z,6.70
2023-04-15T05:41:32.791Z,5.00
2023-04-15T05:44:00.661Z,5.30
2023-04-15T05:46:30.135Z,6.27
2023-04-15T05:48:58.069Z,5.27
2023-04-15T05:51:26.356Z,5.60
2023-04-15T05:53:54.231Z,5.17
2023-04-15T05:56:22.201Z,4.87
2023-04-15T05:58:50.984Z,5.33
2023-04-15T06:01:20.657Z,5.23
2023-04-15T06:03:50.102Z,4.90
2023-04-15T06:06:18.121Z,5.00
2023-04-15T06:08:46.191Z,4.27
2023-04-15T06:11:14.180Z,4.60
2023-04-15T06:13:42.094Z,4.83
2023-04-15T06:16:10.045Z,4.90
2023-04-15T06:18:37.916Z,4.80
2023-04-15T06:21:07.956Z,5.07
2023-04-15T06:23:36.256Z,5.30
2023-04-15T06:26:04.233Z,4.47
2023-04-15T06:28:32.173Z,4.87
2023-04-15T06:31:00.103Z,4.93
2023-04-15T06:33:27.998Z,5.07
2023-04-15T06:35:55.830Z,4.93
2023-04-15T06:38:25.147Z,4.80
2023-04-15T06:40:53.102Z,4.30
2023-04-15T06:43:21.078Z,5.10
2023-04-15T06:45:49.020Z,4.90
2023-04-15T06:48:17.651Z,4.43
2023-04-15T06:50:45.556Z,5.03
2023-04-15T06:53:13.473Z,3.93
2023-04-15T06:55:42.770Z,4.03
2023-04-15T06:58:10.786Z,4.87
2023-04-15T07:00:39.387Z,4.67
2023-04-15T07:03:10.222Z,4.30
2023-04-15T07:05:38.383Z,4.40
2023-04-15T07:08:06.754Z,4.10
2023-04-15T07:10:34.771Z,4.90
2023-04-15T07:13:05.532Z,5.10
2023-04-15T07:15:33.439Z,4.53
2023-04-15T07:18:01.743Z,5.30
2023-04-15T07:20:29.699Z,4.97
2023-04-15T07:22:57.697Z,4.50
2023-04-15T07:25:25.627Z,4.33
2023-04-15T07:27:54.096Z,4.63
2023-04-15T07:30:23.368Z,4.30
2023-04-15T07:32:51.295Z,4.20
2023-04-15T07:35:21.316Z,3.77
2023-04-15T07:37:49.301Z,3.80
2023-04-15T07:40:17.304Z,4.30
2023-04-15T07:42:45.243Z,4.23
2023-04-15T07:45:13.823Z,4.13
2023-04-15T07:47:43.138Z,4.20
2023-04-15T07:50:11.659Z,4.50
2023-04-15T07:52:40.083Z,3.67
2023-04-15T07:55:08.646Z,4.30
2023-04-15T07:57:36.805Z,3.83
2023-04-15T08:00:07.409Z,4.03
2023-04-15T08:02:41.698Z,4.27
2023-04-15T08:05:12.679Z,3.80
2023-04-15T08:07:43.595Z,3.83
2023-04-15T08:10:12.028Z,4.27
2023-04-15T08:12:39.940Z,4.07
2023-04-15T08:15:09.148Z,3.50
2023-04-15T08:17:37.104Z,4.20
2023-04-15T08:20:06.596Z,3.30
2023-04-15T08:22:36.362Z,4.03
2023-04-15T08:25:04.439Z,3.53
2023-04-15T08:27:32.386Z,3.80
2023-04-15T08:30:02.132Z,3.23
2023-04-15T08:32:31.550Z,3.70
2023-04-15T08:34:59.514Z,3.00
2023-04-15T08:37:27.759Z,3.60
2023-04-15T08:39:56.998Z,3.50
2023-04-15T08:42:28.955Z,3.30
2023-04-15T08:44:56.859Z,4.00
2023-04-15T08:47:24.829Z,3.87
2023-04-15T08:49:53.923Z,3.33
2023-04-15T08:52:22.494Z,2.93
2023-04-15T08:54:50.372Z,3.27
2023-04-15T08:57:19.630Z,3.23
2023-04-15T08:59:47.559Z,3.13
2023-04-15T09:02:15.936Z,3.17
2023-04-15T09:04:43.872Z,3.30
2023-04-15T09:07:12.014Z,3.13
2023-04-15T09:09:40.254Z,3.40
2023-04-15T09:12:08.144Z,2.93
2023-04-15T09:14:39.877Z,3.47
2023-04-15T09:17:07.805Z,2.77
2023-04-15T09:19:35.669Z,3.20
2023-04-15T09:22:03.598Z,3.37
2023-04-15T09:24:37.360Z,3.10
2023-04-15T09:27:05.478Z,3.07
2023-04-15T09:29:35.032Z,2.60
2023-04-15T09:32:14.426Z,3.00
2023-04-15T09:34:42.385Z,2.63
2023-04-15T09:37:31.276Z,2.90
2023-04-15T09:40:02.896Z,2.60
2023-04-15T09:42:30.959Z,2.83
2023-04-15T09:45:09.499Z,2.77
2023-04-15T09:47:38.807Z,2.73
2023-04-15T09:50:07.715Z,2.70
2023-04-15T09:52:38.339Z,3.03
2023-04-15T09:55:10.020Z,3.10
2023-04-15T09:57:38.332Z,2.60
2023-04-15T10:00:08.245Z,2.50
2023-04-15T10:02:38.496Z,2.50
2023-04-15T10:05:07.217Z,2.97
2023-04-15T10:07:36.850Z,2.70
2023-04-15T10:10:05.423Z,2.70
2023-04-15T10:12:33.552Z,2.53
2023-04-15T10:15:04.920Z,2.47
2023-04-15T10:17:35.310Z,2.77
2023-04-15T10:20:07.692Z,2.50
2023-04-15T10:22:35.594Z,2.60
2023-04-15T10:25:04.177Z,2.00
2023-04-15T10:27:32.034Z,2.23
2023-04-15T10:29:59.978Z,2.60
2023-04-15T10:32:27.890Z,2.50
2023-04-15T10:34:55.812Z,2.30
2023-04-15T10:37:35.228Z,2.07
2023-04-15T10:40:03.790Z,2.47
2023-04-15T10:42:35.571Z,2.40
2023-04-15T10:45:04.079Z,2.30
2023-04-15T10:47:32.602Z,2.30
2023-04-15T10:50:01.320Z,2.50
2023-04-15T10:52:30.584Z,2.23
2023-04-15T10:55:05.356Z,1.90
2023-04-15T10:57:39.351Z,1.70
2023-04-15T11:00:14.546Z,2.10
2023-04-15T11:02:47.130Z,2.27
2023-04-15T11:05:15.595Z,2.10
2023-04-15T11:07:54.580Z,2.10
2023-04-15T11:10:55.826Z,2.00
2023-04-15T11:13:31.361Z,2.50
2023-04-15T11:16:01.366Z,1.90
2023-04-15T11:18:33.763Z,1.80
2023-04-15T11:21:03.556Z,2.07
2023-04-15T11:23:37.468Z,1.80
2023-04-15T11:26:09.129Z,2.00
2023-04-15T11:28:38.903Z,2.00
2023-04-15T11:31:08.476Z,1.97
2023-04-15T11:33:36.401Z,1.77
2023-04-15T11:36:04.530Z,2.00
2023-04-15T11:38:32.513Z,2.00
2023-04-15T11:41:03.746Z,1.97
2023-04-15T11:43:35.285Z,1.83
2023-04-15T11:46:03.730Z,2.07
2023-04-15T11:48:32.645Z,1.80
2023-04-15T11:51:01.223Z,2.00
2023-04-15T11:53:38.070Z,1.80
2023-04-15T11:56:08.642Z,2.00
2023-04-15T11:58:37.459Z,1.93
2023-04-15T12:01:06.014Z,1.43
2023-04-15T12:03:38.344Z,1.87
2023-04-15T12:06:12.314Z,1.60
2023-04-15T12:09:00.024Z,1.70
2023-04-15T12:11:33.727Z,1.87
2023-04-15T12:14:05.337Z,1.77
2023-04-15T12:16:36.987Z,2.00
2023-04-15T12:19:16.317Z,1.80
2023-04-15T12:21:46.701Z,1.73
2023-04-15T12:24:14.623Z,1.67
2023-04-15T12:26:47.820Z,1.70
2023-04-15T12:29:16.446Z,1.80
2023-04-15T12:31:51.662Z,1.83
2023-04-15T12:34:20.900Z,1.67
2023-04-15T12:36:48.890Z,1.57
2023-04-15T12:39:16.803Z,1.70
2023-04-15T12:41:44.692Z,1.70
2023-04-15T12:44:16.571Z,1.50
2023-04-15T12:46:44.521Z,1.40
2023-04-15T12:49:14.646Z,1.53
2023-04-15T12:51:42.598Z,1.50
2023-04-15T12:54:10.486Z,1.40
2023-04-15T12:56:38.355Z,1.50
2023-04-15T12:59:06.303Z,1.37
2023-04-15T13:01:38.665Z,1.40
2023-04-15T13:04:06.772Z,1.30
2023-04-15T13:06:34.944Z,1.60
2023-04-15T13:09:06.333Z,1.60
2023-04-15T13:11:34.536Z,1.30
2023-04-15T13:14:02.694Z,1.50
2023-04-15T13:16:31.965Z,1.40
2023-04-15T13:19:01.523Z,1.50
2023-04-15T13:21:29.554Z,1.30
2023-04-15T13:23:57.430Z,1.40
2023-04-15T13:26:25.412Z,1.30
2023-04-15T13:28:53.303Z,1.40
2023-04-15T13:31:21.414Z,1.43
2023-04-15T13:33:49.390Z,1.50
2023-04-15T13:36:18.663Z,1.33
2023-04-15T13:38:47.535Z,1.10
2023-04-15T13:41:17.050Z,1.47
2023-04-15T13:43:45.894Z,1.30
2023-04-15T13:46:13.920Z,1.27
2023-04-15T13:48:41.992Z,1.20
2023-04-15T13:51:09.962Z,1.43
2023-04-15T13:53:39.805Z,1.20
2023-04-15T13:56:08.511Z,1.60
2023-04-15T13:58:41.248Z,1.30
2023-04-15T14:01:09.350Z,1.20
2023-04-15T14:03:37.438Z,1.20
2023-04-15T14:06:06.064Z,1.10
2023-04-15T14:08:34.107Z,1.30
2023-04-15T14:11:03.366Z,1.37
2023-04-15T14:13:31.222Z,1.50
2023-04-15T14:15:59.121Z,1.20
2023-04-15T14:18:27.133Z,1.10
2023-04-15T14:20:55.057Z,1.20
2023-04-15T14:23:23.026Z,1.07
2023-04-15T14:25:51.665Z,1.20
2023-04-15T14:28:20.947Z,1.20
2023-04-15T14:30:48.884Z,1.10
2023-04-15T14:33:16.994Z,1.10
2023-04-15T14:35:44.881Z,1.10
2023-04-15T14:38:12.764Z,1.13
2023-04-15T14:40:41.628Z,1.23
2023-04-15T14:43:09.704Z,2.57
2023-04-15T14:45:41.830Z,2.17
2023-04-15T14:48:14.497Z,2.10
2023-04-15T14:50:42.541Z,1.50
2023-04-15T14:53:11.471Z,1.80
2023-04-15T14:55:39.597Z,1.80
2023-04-15T14:58:08.177Z,1.63
2023-04-15T15:00:40.283Z,1.60
2023-04-15T15:03:13.017Z,1.60
2023-04-15T15:05:42.831Z,1.50
2023-04-15T15:08:11.062Z,1.40
2023-04-15T15:10:48.234Z,1.60
2023-04-15T15:13:17.562Z,1.40
2023-04-15T15:15:45.763Z,1.20
2023-04-15T15:18:15.047Z,1.50
2023-04-15T15:20:42.952Z,1.50
2023-04-15T15:23:10.875Z,1.40
2023-04-15T15:25:38.759Z,1.40
2023-04-15T15:28:06.916Z,1.30
2023-04-15T15:30:34.861Z,1.50
2023-04-15T15:33:02.824Z,1.20
2023-04-15T15:35:32.279Z,1.20
2023-04-15T15:38:03.748Z,1.20
2023-04-15T15:40:31.743Z,1.20
2023-04-15T15:42:59.717Z,1.30
2023-04-15T15:45:27.576Z,1.23
2023-04-15T15:47:57.045Z,1.20
2023-04-15T15:50:25.271Z,1.13
2023-04-15T15:52:55.123Z,1.17
2023-04-15T15:55:25.121Z,1.13
2023-04-15T15:57:53.257Z,1.10
2023-04-15T16:00:21.821Z,1.23
2023-04-15T16:05:22.593Z,1.30
2023-04-15T16:07:52.420Z,1.30
2023-04-15T16:10:22.262Z,1.20
2023-04-15T16:12:50.650Z,1.20
2023-04-15T16:15:18.742Z,1.00
2023-04-15T16:17:46.831Z,1.10
2023-04-15T16:20:14.877Z,1.10
2023-04-15T16:22:42.906Z,1.10
2023-04-15T16:25:11.237Z,1.00
2023-04-15T16:28:03.453Z,1.27
2023-04-15T16:30:37.899Z,1.17
2023-04-15T16:33:06.247Z,1.30
2023-04-15T16:35:34.904Z,1.20
2023-04-15T16:38:03.056Z,1.33
2023-04-15T16:40:32.386Z,1.40
2023-04-15T16:43:07.264Z,1.30
2023-04-15T16:45:35.237Z,1.47
2023-04-15T16:48:03.232Z,1.60
2023-04-15T16:50:31.419Z,1.40
2023-04-15T16:52:59.340Z,1.50
2023-04-15T16:55:27.755Z,1.90
2023-04-15T16:58:02.620Z,1.40
2023-04-15T17:00:33.300Z,1.83
2023-04-15T17:03:01.839Z,1.50
2023-04-15T17:05:30.521Z,1.60
2023-04-15T17:07:58.552Z,1.80
2023-04-15T17:10:26.629Z,1.60
2023-04-15T17:12:54.549Z,1.60
2023-04-15T17:15:22.522Z,1.33
2023-04-15T17:17:51.829Z,1.77
2023-04-15T17:20:20.388Z,1.80
2023-04-15T17:22:48.927Z,1.73
2023-04-15T17:25:16.900Z,1.70
2023-04-15T17:27:44.960Z,1.60
2023-04-15T17:30:13.179Z,1.60
2023-04-15T17:32:42.620Z,1.60
2023-04-15T17:35:12.206Z,1.87
2023-04-15T17:37:44.462Z,1.73
2023-04-15T17:40:13.776Z,1.80
2023-04-15T17:42:46.121Z,2.10
2023-04-15T17:45:15.210Z,2.10
2023-04-15T17:47:43.169Z,2.30
2023-04-15T17:50:15.309Z,1.70
2023-04-15T17:52:43.240Z,2.00
2023-04-15T17:55:12.313Z,2.10
2023-04-15T17:57:40.194Z,2.10
2023-04-15T18:00:10.092Z,1.90
2023-04-15T18:02:41.474Z,1.80
2023-04-15T18:05:10.377Z,1.90
2023-04-15T18:07:39.769Z,2.00
2023-04-15T18:10:09.726Z,1.77
2023-04-15T18:12:37.637Z,2.30
2023-04-15T18:15:06.279Z,2.10
2023-04-15T18:17:34.157Z,2.03
2023-04-15T18:20:02.100Z,2.03
2023-04-15T18:22:30.002Z,2.20
2023-04-15T18:25:04.097Z,2.03
2023-04-15T18:27:32.367Z,2.00
2023-04-15T18:30:00.347Z,2.03
2023-04-15T18:32:31.942Z,2.10
2023-04-15T18:35:02.068Z,2.00
2023-04-15T18:37:30.360Z,2.00
2023-04-15T18:39:59.799Z,2.10
2023-04-15T18:42:27.729Z,1.80
2023-04-15T18:44:56.269Z,2.07
2023-04-15T18:47:25.263Z,1.80
2023-04-15T18:49:54.789Z,2.00
2023-04-15T18:52:22.755Z,1.70
2023-04-15T18:54:50.604Z,2.17
2023-04-15T18:57:22.822Z,1.90
2023-04-15T18:59:58.783Z,1.73
2023-04-15T19:02:26.758Z,2.00
2023-04-15T19:04:55.183Z,1.90
2023-04-15T19:07:23.942Z,1.73
2023-04-15T19:09:51.844Z,1.87
2023-04-15T19:12:21.096Z,1.70
2023-04-15T19:14:48.993Z,1.60
2023-04-15T19:17:16.884Z,1.70
2023-04-15T19:19:44.744Z,1.87
2023-04-15T19:22:12.637Z,1.80
2023-04-15T19:24:40.895Z,1.70
2023-04-15T19:27:08.785Z,1.97
2023-04-15T19:29:38.036Z,1.70
2023-04-15T19:32:06.561Z,1.60
2023-04-15T19:34:34.495Z,1.83
2023-04-15T19:37:02.398Z,1.97
2023-04-15T19:39:30.569Z,1.60
2023-04-15T19:41:58.875Z,1.40
2023-04-15T19:44:26.792Z,1.47
2023-04-15T19:46:56.054Z,1.83
2023-04-15T19:49:23.943Z,1.73
2023-04-15T19:51:51.888Z,3.20
2023-04-15T19:54:19.756Z,1.30
2023-04-15T19:56:47.651Z,1.57
2023-04-15T19:59:15.662Z,1.40
2023-04-15T20:01:43.548Z,1.40
2023-04-15T20:04:14.218Z,1.70
2023-04-15T20:06:42.152Z,1.50
2023-04-15T20:09:11.264Z,1.30
2023-04-15T20:12:48.133Z,1.70
2023-04-15T20:14:27.382Z,1.63
2023-04-15T20:16:55.447Z,1.63
2023-04-15T20:19:24.759Z,1.50
2023-04-15T20:21:53.924Z,1.57
2023-04-15T20:24:24.142Z,1.70
2023-04-15T20:26:52.097Z,1.70
2023-04-15T20:29:19.977Z,1.40
2023-04-15T20:31:48.021Z,1.47
2023-04-15T20:34:16.272Z,1.40
2023-04-15T20:36:45.591Z,1.50
2023-04-15T20:39:13.525Z,1.30
2023-04-15T20:41:41.480Z,1.60
2023-04-15T20:44:09.363Z,1.40
2023-04-15T20:46:37.417Z,1.40
2023-04-15T20:49:05.480Z,1.30
2023-04-15T20:51:37.477Z,1.50
2023-04-15T20:54:06.962Z,1.30
2023-04-15T20:56:34.851Z,1.50
2023-04-15T20:59:02.915Z,1.43
2023-04-15T21:01:31.133Z,1.37
2023-04-15T21:03:59.687Z,1.40
2023-04-15T21:06:30.818Z,1.40
2023-04-15T21:08:58.728Z,1.40
2023-04-15T21:11:46.350Z,1.53
2023-04-15T21:14:18.811Z,1.40
2023-04-15T21:16:46.840Z,1.40
2023-04-15T21:19:14.861Z,1.30
2023-04-15T21:21:42.726Z,1.30
2023-04-15T21:24:12.879Z,1.30
2023-04-15T21:26:42.175Z,1.23
2023-04-15T21:29:12.082Z,1.27
2023-04-15T21:31:43.508Z,1.33
2023-04-15T21:34:11.466Z,1.37
2023-04-15T21:36:39.534Z,1.30
2023-04-15T21:39:09.137Z,1.40
2023-04-15T21:41:37.752Z,1.30
2023-04-15T21:44:07.064Z,1.20
2023-04-15T21:46:35.927Z,1.40
2023-04-15T21:49:04.703Z,1.40
2023-04-15T21:51:32.855Z,1.23
2023-04-15T21:54:00.728Z,1.50
2023-04-15T21:56:28.655Z,1.30
2023-04-15T21:58:57.495Z,1.37
2023-04-15T22:01:27.064Z,1.53
2023-04-15T22:03:55.252Z,1.33
2023-04-15T22:06:23.234Z,1.30
2023-04-15T22:08:56.951Z,1.40
2023-04-15T22:11:30.343Z,1.43
2023-04-15T22:13:58.415Z,1.60
2023-04-15T22:16:27.716Z,1.40
2023-04-15T22:18:55.753Z,1.40
2023-04-15T22:21:23.714Z,1.30
2023-04-15T22:23:52.130Z,1.20
2023-04-15T22:26:20.295Z,1.47
2023-04-15T22:28:48.228Z,1.33
2023-04-15T22:31:16.272Z,1.20
2023-04-15T22:33:45.603Z,1.40
2023-04-15T22:36:13.656Z,1.30
2023-04-15T22:38:41.616Z,1.40
2023-04-15T22:41:09.519Z,1.10
2023-04-15T22:43:37.447Z,1.20
2023-04-15T22:46:05.498Z,1.23
2023-04-15T22:48:33.440Z,1.30
2023-04-15T22:51:03.063Z,1.37
2023-04-15T22:53:31.353Z,1.17
2023-04-15T22:55:59.261Z,1.13
2023-04-15T22:58:27.180Z,1.40
2023-04-15T23:00:55.207Z,1.20
2023-04-15T23:03:23.193Z,1.10
2023-04-15T23:05:51.278Z,1.40
2023-04-15T23:08:20.537Z,1.30
2023-04-15T23:10:49.758Z,1.23
2023-04-15T23:13:17.612Z,1.20
2023-04-15T23:15:47.845Z,1.40
2023-04-15T23:18:15.801Z,1.23
2023-04-15T23:20:43.690Z,1.10
2023-04-15T23:23:11.634Z,1.40
2023-04-15T23:25:40.955Z,1.10
2023-04-15T23:28:08.891Z,1.27
2023-04-15T23:30:36.750Z,1.20
2023-04-15T23:33:04.830Z,1.30
2023-04-15T23:35:32.736Z,1.10
2023-04-15T23:38:00.652Z,1.13
2023-04-15T23:40:28.587Z,1.17
2023-04-15T23:42:57.850Z,1.30
2023-04-15T23:45:25.899Z,1.20
2023-04-15T23:47:53.942Z,1.00
2023-04-15T23:50:21.843Z,1.10
2023-04-15T23:52:49.751Z,1.20
2023-04-15T23:55:17.657Z,1.10
2023-04-15T23:57:45.638Z,1.10
